createdAt,value
2018-08-27T00:01:46.462Z,61.51
2018-08-27T00:04:18.289Z,61.71
2018-08-27T00:06:49.388Z,61.41
2018-08-27T00:09:21.786Z,62.50
2018-08-27T00:11:56.509Z,60.78
2018-08-27T00:14:27.488Z,61.70
2018-08-27T00:16:58.680Z,62.74
2018-08-27T00:19:37.376Z,62.70
2018-08-27T00:22:09.300Z,61.46
2018-08-27T00:24:40.337Z,62.84
2018-08-27T00:27:12.516Z,62.66
2018-08-27T00:29:45.480Z,62.28
2018-08-27T00:37:51.317Z,62.01
2018-08-27T00:40:20.233Z,60.34
2018-08-27T00:42:51.519Z,60.90
2018-08-27T00:45:20.795Z,61.40
2018-08-27T00:47:49.851Z,61.55
2018-08-27T00:50:19.090Z,62.10
2018-08-27T00:52:48.126Z,62.89
2018-08-27T00:55:17.082Z,61.82
2018-08-27T00:57:45.945Z,62.38
2018-08-27T01:00:14.887Z,63.01
2018-08-27T01:02:43.807Z,61.98
2018-08-27T01:05:12.842Z,62.08
2018-08-27T01:07:42.967Z,62.14
2018-08-27T01:10:12.773Z,61.81
2018-08-27T01:12:42.507Z,62.60
2018-08-27T01:15:11.385Z,62.19
2018-08-27T01:17:40.238Z,60.83
2018-08-27T01:20:09.166Z,63.27
2018-08-27T01:22:38.799Z,64.38
2018-08-27T01:25:07.643Z,63.79
2018-08-27T01:27:43.398Z,64.00
2018-08-27T01:30:12.947Z,63.10
2018-08-27T01:32:42.945Z,64.02
2018-08-27T01:35:12.880Z,63.93
2018-08-27T01:37:42.904Z,63.54
2018-08-27T01:40:11.975Z,63.55
2018-08-27T01:42:41.176Z,63.07
2018-08-27T01:45:10.097Z,63.23
2018-08-27T01:47:38.905Z,64.03
2018-08-27T01:50:08.177Z,63.91
2018-08-27T01:52:37.103Z,63.44
2018-08-27T01:55:06.362Z,62.69
2018-08-27T01:57:35.186Z,62.97
2018-08-27T02:00:04.106Z,63.65
2018-08-27T02:02:33.029Z,62.51
2018-08-27T02:05:02.223Z,60.74
2018-08-27T02:07:31.068Z,61.75
2018-08-27T02:10:00.013Z,63.26
2018-08-27T02:12:28.846Z,63.06
2018-08-27T02:14:57.779Z,62.35
2018-08-27T02:17:26.647Z,63.42
2018-08-27T02:19:55.815Z,63.30
2018-08-27T02:22:24.638Z,62.65
2018-08-27T02:24:53.408Z,62.78
2018-08-27T02:27:22.243Z,62.16
2018-08-27T02:29:51.663Z,62.27
2018-08-27T02:32:20.538Z,61.54
2018-08-27T02:34:49.367Z,61.35
2018-08-27T02:37:18.372Z,62.43
2018-08-27T02:39:47.568Z,63.19
2018-08-27T02:42:17.223Z,63.00
2018-08-27T02:44:46.069Z,62.17
2018-08-27T02:47:14.880Z,62.54
2018-08-27T02:49:44.818Z,62.34
2018-08-27T02:52:14.755Z,62.00
2018-08-27T02:54:44.690Z,62.66
2018-08-27T02:57:14.245Z,61.91
2018-08-27T02:59:43.345Z,62.35
2018-08-27T03:02:12.518Z,62.87
2018-08-27T03:04:41.420Z,62.46
2018-08-27T03:07:10.675Z,62.55
2018-08-27T03:09:39.611Z,62.45
2018-08-27T03:12:08.815Z,62.53
2018-08-27T03:14:37.766Z,62.73
2018-08-27T03:17:06.918Z,63.62
2018-08-27T03:19:35.838Z,63.20
2018-08-27T03:22:04.749Z,63.31
2018-08-27T03:24:33.619Z,63.84
2018-08-27T03:29:36.524Z,62.42
2018-08-27T03:32:05.344Z,62.87
2018-08-27T03:34:34.220Z,63.61
2018-08-27T03:37:03.075Z,62.58
2018-08-27T03:39:31.907Z,61.14
2018-08-27T03:42:00.687Z,61.57
2018-08-27T03:44:29.646Z,62.32
2018-08-27T03:46:59.868Z,62.82
2018-08-27T03:49:28.681Z,62.91
2018-08-27T03:51:58.420Z,63.53
2018-08-27T03:54:27.351Z,62.50
2018-08-27T03:56:56.357Z,62.43
2018-08-27T03:59:25.286Z,61.89
2018-08-27T04:01:54.608Z,62.11
2018-08-27T04:04:29.621Z,62.11
2018-08-27T04:06:58.820Z,61.77
2018-08-27T04:09:27.933Z,61.63
2018-08-27T04:14:32.095Z,62.50
2018-08-27T04:17:01.446Z,61.29
2018-08-27T04:19:30.360Z,60.85
2018-08-27T04:22:00.010Z,61.26
2018-08-27T04:24:29.388Z,62.21
2018-08-27T04:26:58.297Z,61.18
2018-08-27T04:29:27.365Z,61.28
2018-08-27T04:31:58.885Z,61.02
2018-08-27T04:34:27.872Z,60.87
2018-08-27T04:36:56.858Z,62.22
2018-08-27T04:39:25.990Z,62.24
2018-08-27T04:41:54.869Z,61.76
2018-08-27T04:44:23.855Z,61.80
2018-08-27T04:46:53.231Z,61.16
2018-08-27T04:49:22.137Z,61.22
2018-08-27T04:51:50.874Z,60.28
2018-08-27T04:54:19.923Z,60.37
2018-08-27T04:56:49.093Z,60.04
2018-08-27T04:59:20.742Z,59.84
2018-08-27T05:01:50.005Z,58.77
2018-08-27T05:04:18.973Z,58.93
2018-08-27T05:06:49.449Z,58.47
2018-08-27T05:09:18.701Z,58.35
2018-08-27T05:11:48.631Z,58.07
2018-08-27T05:14:17.808Z,58.37
2018-08-27T05:16:47.385Z,58.13
2018-08-27T05:19:18.124Z,57.83
2018-08-27T05:21:47.016Z,57.04
2018-08-27T05:24:15.837Z,57.34
2018-08-27T05:26:44.952Z,55.25
2018-08-27T05:29:13.803Z,52.06
2018-08-27T05:31:42.649Z,54.22
2018-08-27T05:34:11.856Z,55.70
2018-08-27T05:36:42.073Z,55.08
2018-08-27T05:39:11.132Z,55.33
2018-08-27T05:41:40.834Z,55.23
2018-08-27T05:44:10.724Z,54.97
2018-08-27T05:46:40.031Z,55.04
2018-08-27T05:49:09.187Z,54.49
2018-08-27T05:51:37.978Z,54.31
2018-08-27T05:54:13.338Z,50.91
2018-08-27T05:56:42.303Z,50.96
2018-08-27T05:59:12.809Z,51.16
2018-08-27T06:01:41.960Z,52.04
2018-08-27T06:04:10.801Z,51.30
2018-08-27T06:06:46.690Z,50.02
2018-08-27T06:09:22.452Z,49.64
2018-08-27T06:11:52.226Z,50.69
2018-08-27T06:14:21.582Z,49.49
2018-08-27T06:16:50.532Z,51.19
2018-08-27T06:19:20.502Z,49.97
2018-08-27T06:21:51.853Z,47.35
2018-08-27T06:24:22.085Z,47.51
2018-08-27T06:29:34.111Z,46.83
2018-08-27T06:32:03.225Z,47.23
2018-08-27T06:34:32.000Z,48.49
2018-08-27T06:37:00.934Z,46.71
2018-08-27T06:39:29.772Z,47.72
2018-08-27T06:41:58.880Z,46.68
2018-08-27T06:44:29.547Z,47.55
2018-08-27T06:46:59.277Z,46.86
2018-08-27T06:49:28.379Z,47.80
2018-08-27T06:54:32.584Z,48.85
2018-08-27T06:57:01.805Z,46.10
2018-08-27T06:59:32.457Z,47.15
2018-08-27T07:02:01.315Z,47.39
2018-08-27T07:04:30.241Z,47.06
2018-08-27T07:09:33.415Z,45.84
2018-08-27T07:12:02.428Z,47.11
2018-08-27T07:14:32.063Z,46.32
2018-08-27T07:17:00.948Z,45.99
2018-08-27T07:19:29.764Z,45.74
2018-08-27T07:21:59.116Z,45.79
2018-08-27T07:24:28.037Z,45.05
2018-08-27T07:26:57.940Z,44.31
2018-08-27T07:29:26.831Z,45.21
2018-08-27T07:34:30.240Z,43.03
2018-08-27T07:36:59.127Z,43.40
2018-08-27T07:39:28.278Z,42.59
2018-08-27T07:41:57.208Z,45.19
2018-08-27T07:44:26.164Z,43.78
2018-08-27T07:46:55.028Z,43.49
2018-08-27T07:49:23.829Z,42.96
2018-08-27T07:51:52.761Z,42.15
2018-08-27T07:54:21.595Z,41.75
2018-08-27T07:56:51.620Z,42.11
2018-08-27T07:59:20.732Z,42.72
2018-08-27T08:01:50.117Z,41.14
2018-08-27T08:04:20.343Z,41.15
2018-08-27T08:06:50.368Z,42.38
2018-08-27T08:09:25.139Z,40.88
2018-08-27T08:11:54.682Z,40.16
2018-08-27T08:14:23.606Z,41.03
2018-08-27T08:16:52.490Z,41.37
2018-08-27T08:19:21.632Z,38.84
2018-08-27T08:21:50.500Z,38.91
2018-08-27T08:24:20.627Z,39.01
2018-08-27T08:26:51.209Z,38.03
2018-08-27T08:29:21.228Z,37.59
2018-08-27T08:31:50.613Z,36.08
2018-08-27T08:34:20.608Z,36.64
2018-08-27T08:39:25.151Z,38.21
2018-08-27T08:41:54.141Z,36.09
2018-08-27T08:44:23.557Z,36.82
2018-08-27T08:46:52.521Z,36.32
2018-08-27T08:49:21.895Z,36.58
2018-08-27T08:51:51.255Z,35.00
2018-08-27T08:54:21.292Z,35.23
2018-08-27T08:56:52.585Z,35.33
2018-08-27T08:59:21.593Z,35.20
2018-08-27T09:01:51.509Z,36.30
2018-08-27T09:04:21.676Z,32.71
2018-08-27T09:06:51.387Z,33.86
2018-08-27T09:09:22.924Z,35.13
2018-08-27T09:11:51.768Z,32.79
2018-08-27T09:14:21.612Z,33.04
2018-08-27T09:16:51.766Z,32.65
2018-08-27T09:19:21.934Z,32.67
2018-08-27T09:24:25.884Z,33.31
2018-08-27T09:26:54.783Z,32.81
2018-08-27T09:29:23.691Z,34.28
2018-08-27T09:37:02.294Z,33.54
2018-08-27T09:39:31.223Z,32.33
2018-08-27T09:42:00.460Z,32.62
2018-08-27T09:44:29.532Z,29.40
2018-08-27T09:46:59.118Z,28.56
2018-08-27T09:49:28.144Z,30.40
2018-08-27T09:51:57.195Z,28.74
2018-08-27T09:54:26.132Z,29.54
2018-08-27T09:56:55.250Z,29.25
2018-08-27T09:59:24.185Z,28.65
2018-08-27T10:01:59.107Z,28.12
2018-08-27T10:04:27.997Z,28.48
2018-08-27T10:06:57.396Z,27.99
2018-08-27T10:09:26.780Z,27.37
2018-08-27T10:11:57.794Z,27.90
2018-08-27T10:14:26.656Z,27.06
2018-08-27T10:16:59.467Z,26.14
2018-08-27T10:19:28.358Z,26.67
2018-08-27T10:21:58.551Z,27.29
2018-08-27T10:24:27.637Z,28.79
2018-08-27T10:26:56.638Z,28.77
2018-08-27T10:29:25.506Z,23.73
2018-08-27T10:31:54.456Z,25.30
2018-08-27T10:34:23.296Z,27.52
2018-08-27T10:36:52.412Z,27.24
2018-08-27T10:39:23.843Z,24.53
2018-08-27T10:41:52.632Z,23.05
2018-08-27T10:44:21.663Z,24.67
2018-08-27T10:46:50.421Z,26.04
2018-08-27T10:49:19.167Z,23.61
2018-08-27T10:51:48.042Z,24.96
2018-08-27T10:54:17.098Z,27.89
2018-08-27T10:56:46.229Z,28.12
2018-08-27T10:59:15.044Z,27.03
2018-08-27T11:01:43.833Z,26.58
2018-08-27T11:04:12.963Z,28.54
2018-08-27T11:06:42.370Z,26.76
2018-08-27T11:09:11.984Z,26.86
2018-08-27T11:11:40.851Z,30.13
2018-08-27T11:14:09.788Z,28.28
2018-08-27T11:16:38.747Z,30.47
2018-08-27T11:19:08.337Z,27.65
2018-08-27T11:21:37.359Z,28.54
2018-08-27T11:24:22.599Z,29.69
2018-08-27T11:26:51.654Z,29.19
2018-08-27T11:29:20.832Z,29.99
2018-08-27T11:31:49.725Z,29.42
2018-08-27T11:34:18.804Z,29.94
2018-08-27T11:36:47.720Z,27.14
2018-08-27T11:39:16.834Z,29.71
2018-08-27T11:41:45.766Z,26.89
2018-08-27T11:44:14.622Z,28.35
2018-08-27T11:46:43.774Z,28.97
2018-08-27T11:49:12.615Z,28.48
2018-08-27T11:51:42.309Z,29.27
2018-08-27T11:54:12.718Z,30.34
2018-08-27T11:56:42.292Z,30.15
2018-08-27T11:59:12.308Z,28.35
2018-08-27T12:01:41.123Z,29.57
2018-08-27T12:04:10.142Z,28.65
2018-08-27T12:06:39.294Z,25.50
2018-08-27T12:09:10.275Z,26.91
2018-08-27T12:11:39.155Z,27.46
2018-08-27T12:14:09.978Z,26.58
2018-08-27T12:16:39.067Z,26.44
2018-08-27T12:19:09.758Z,28.39
2018-08-27T12:21:38.794Z,25.57
2018-08-27T12:24:07.677Z,26.67
2018-08-27T12:26:36.596Z,28.55
2018-08-27T12:29:05.638Z,27.23
2018-08-27T12:31:35.075Z,25.55
2018-08-27T12:34:04.065Z,26.55
2018-08-27T12:36:33.980Z,28.65
2018-08-27T12:39:04.037Z,26.54
2018-08-27T12:41:32.932Z,26.40
2018-08-27T12:44:01.785Z,27.22
2018-08-27T12:49:04.969Z,26.39
2018-08-27T12:51:34.316Z,27.77
2018-08-27T12:54:03.444Z,27.36
2018-08-27T12:56:32.925Z,25.07
2018-08-27T12:59:01.920Z,25.73
2018-08-27T13:01:30.970Z,26.20
2018-08-27T13:04:01.079Z,26.18
2018-08-27T13:06:30.072Z,25.33
2018-08-27T13:08:58.986Z,23.70
2018-08-27T13:11:28.051Z,24.67
2018-08-27T13:13:56.855Z,24.91
2018-08-27T13:16:25.694Z,25.48
2018-08-27T13:18:55.387Z,25.53
2018-08-27T13:21:31.621Z,26.75
2018-08-27T13:26:35.027Z,26.62
2018-08-27T13:29:04.905Z,26.56
2018-08-27T13:31:33.949Z,24.45
2018-08-27T13:36:37.793Z,24.23
2018-08-27T13:39:08.331Z,26.07
2018-08-27T13:41:37.400Z,25.14
2018-08-27T13:44:12.254Z,26.92
2018-08-27T13:46:41.517Z,25.85
2018-08-27T13:49:10.366Z,24.83
2018-08-27T13:51:48.427Z,26.05
2018-08-27T13:54:17.964Z,25.79
2018-08-27T13:56:46.881Z,25.55
2018-08-27T13:59:15.849Z,26.46
2018-08-27T14:01:44.837Z,27.18
2018-08-27T14:04:13.709Z,23.88
2018-08-27T14:06:43.609Z,24.08
2018-08-27T14:09:13.551Z,26.21
2018-08-27T14:11:43.518Z,27.48
2018-08-27T14:14:16.401Z,27.35
2018-08-27T14:16:47.404Z,26.35
2018-08-27T14:19:16.245Z,25.18
2018-08-27T14:21:45.666Z,26.93
2018-08-27T14:24:15.597Z,24.87
2018-08-27T14:26:45.608Z,24.74
2018-08-27T14:29:15.172Z,25.83
2018-08-27T14:31:44.702Z,26.50
2018-08-27T14:34:15.093Z,25.06
2018-08-27T14:36:44.270Z,26.24
2018-08-27T14:39:14.128Z,26.74
2018-08-27T14:41:44.044Z,27.51
2018-08-27T14:44:16.049Z,27.81
2018-08-27T14:46:44.932Z,25.35
2018-08-27T14:49:13.967Z,24.65
2018-08-27T14:51:43.937Z,25.62
2018-08-27T14:54:13.789Z,25.68
2018-08-27T14:56:46.432Z,24.78
2018-08-27T14:59:19.668Z,25.79
2018-08-27T15:01:54.671Z,26.57
2018-08-27T15:04:29.599Z,26.34
2018-08-27T15:07:03.050Z,25.41
2018-08-27T15:09:37.193Z,24.48
2018-08-27T15:12:10.718Z,25.28
2018-08-27T15:14:47.281Z,26.04
2018-08-27T15:17:24.547Z,26.71
2018-08-27T15:19:58.480Z,25.08
2018-08-27T15:25:25.638Z,24.03
2018-08-27T15:27:59.971Z,23.78
2018-08-27T15:30:39.173Z,24.68
2018-08-27T15:33:10.064Z,24.61
2018-08-27T15:35:41.303Z,24.33
2018-08-27T15:38:13.536Z,24.95
2018-08-27T15:40:46.296Z,25.06
2018-08-27T15:43:20.267Z,24.20
2018-08-27T15:50:56.681Z,25.42
2018-08-27T15:53:30.453Z,25.49
2018-08-27T15:58:46.524Z,26.23
2018-08-27T16:01:18.456Z,25.86
2018-08-27T16:03:55.512Z,24.10
2018-08-27T16:06:34.913Z,24.41
2018-08-27T16:09:09.837Z,26.18
2018-08-27T16:11:41.964Z,25.25
2018-08-27T16:14:14.264Z,25.56
2018-08-27T16:16:46.680Z,26.48
2018-08-27T16:19:17.840Z,26.18
2018-08-27T16:21:51.615Z,25.69
2018-08-27T16:24:24.972Z,27.43
2018-08-27T16:26:56.590Z,26.25
2018-08-27T16:29:32.330Z,27.31
2018-08-27T16:32:04.814Z,27.04
2018-08-27T16:34:37.684Z,27.71
2018-08-27T16:37:10.695Z,26.21
2018-08-27T16:39:43.264Z,28.01
2018-08-27T16:42:14.477Z,27.51
2018-08-27T16:44:48.345Z,26.24
2018-08-27T16:47:20.471Z,25.83
2018-08-27T16:49:52.337Z,25.78
2018-08-27T16:52:24.296Z,26.58
2018-08-27T16:54:55.026Z,27.07
2018-08-27T16:57:25.781Z,28.31
2018-08-27T16:59:58.109Z,30.89
2018-08-27T17:02:29.186Z,32.76
2018-08-27T17:05:00.974Z,32.52
2018-08-27T17:07:32.471Z,32.27
2018-08-27T17:10:06.149Z,32.42
2018-08-27T17:12:37.991Z,33.24
2018-08-27T17:17:45.719Z,33.17
2018-08-27T17:20:17.948Z,34.20
2018-08-27T17:25:35.824Z,36.64
2018-08-27T17:28:04.884Z,37.80
2018-08-27T17:30:34.063Z,38.71
2018-08-27T17:33:04.349Z,38.06
2018-08-27T17:35:34.571Z,38.21
2018-08-27T17:38:08.565Z,38.66
2018-08-27T17:40:42.545Z,38.13
2018-08-27T17:43:15.930Z,38.64
2018-08-27T17:45:49.481Z,39.15
2018-08-27T17:48:27.010Z,38.85
2018-08-27T17:51:01.920Z,40.07
2018-08-27T17:53:33.044Z,40.03
2018-08-27T17:56:04.298Z,40.60
2018-08-27T17:58:38.087Z,41.99
2018-08-27T18:01:08.760Z,42.64
2018-08-27T18:03:39.869Z,41.86
2018-08-27T18:06:10.683Z,41.39
2018-08-27T18:08:44.830Z,41.55
2018-08-27T18:11:20.528Z,42.74
2018-08-27T18:13:52.767Z,43.24
2018-08-27T18:16:27.453Z,42.97
2018-08-27T18:18:58.748Z,43.34
2018-08-27T18:21:29.324Z,43.79
2018-08-27T18:24:00.084Z,43.76
2018-08-27T18:26:32.549Z,44.12
2018-08-27T18:29:05.534Z,44.28
2018-08-27T18:31:38.680Z,45.45
2018-08-27T18:34:10.341Z,45.37
2018-08-27T18:36:45.288Z,44.71
2018-08-27T18:39:18.505Z,46.04
2018-08-27T18:41:51.675Z,46.54
2018-08-27T18:44:23.056Z,46.15
2018-08-27T18:46:54.496Z,46.92
2018-08-27T18:49:26.261Z,46.39
2018-08-27T18:51:57.450Z,47.33
2018-08-27T18:54:28.419Z,48.10
2018-08-27T18:56:59.563Z,48.77
2018-08-27T18:59:31.888Z,48.44
2018-08-27T19:02:03.217Z,48.83
2018-08-27T19:04:35.287Z,48.83
2018-08-27T19:07:09.992Z,48.72
2018-08-27T19:09:41.689Z,49.17
2018-08-27T19:12:13.762Z,49.66
2018-08-27T19:14:45.597Z,49.88
2018-08-27T19:17:17.200Z,50.23
2018-08-27T19:19:49.724Z,50.48
2018-08-27T19:22:22.141Z,50.34
2018-08-27T19:24:55.526Z,50.05
2018-08-27T19:27:26.940Z,50.41
2018-08-27T19:30:00.278Z,50.75
2018-08-27T19:32:35.292Z,50.41
2018-08-27T19:35:06.383Z,51.51
2018-08-27T19:37:46.421Z,50.90
2018-08-27T19:40:18.468Z,50.38
2018-08-27T19:42:52.216Z,51.50
2018-08-27T19:45:23.969Z,51.50
2018-08-27T19:47:55.267Z,51.65
2018-08-27T19:50:28.334Z,51.99
2018-08-27T19:53:01.531Z,52.23
2018-08-27T19:55:36.724Z,51.02
2018-08-27T19:58:10.477Z,51.42
2018-08-27T20:00:43.926Z,51.66
2018-08-27T20:03:15.137Z,51.82
2018-08-27T20:05:49.179Z,51.65
2018-08-27T20:08:24.160Z,51.26
2018-08-27T20:10:58.103Z,52.63
2018-08-27T20:13:31.340Z,52.32
2018-08-27T20:16:02.523Z,51.94
2018-08-27T20:18:33.749Z,52.43
2018-08-27T20:21:06.857Z,52.89
2018-08-27T20:23:38.879Z,52.84
2018-08-27T20:26:09.575Z,52.91
2018-08-27T20:28:40.683Z,52.48
2018-08-27T20:31:12.205Z,52.71
2018-08-27T20:33:44.296Z,53.23
2018-08-27T20:36:16.496Z,52.55
2018-08-27T20:38:47.648Z,53.12
2018-08-27T20:41:24.546Z,53.45
2018-08-27T20:43:55.677Z,53.63
2018-08-27T20:46:29.251Z,53.45
2018-08-27T20:49:00.403Z,54.35
2018-08-27T20:51:33.609Z,54.47
2018-08-27T20:54:04.776Z,54.80
2018-08-27T20:56:36.777Z,54.23
2018-08-27T20:59:13.564Z,54.30
2018-08-27T21:01:46.666Z,54.74
2018-08-27T21:04:19.038Z,55.56
2018-08-27T21:06:50.053Z,55.47
2018-08-27T21:09:22.297Z,55.67
2018-08-27T21:11:53.427Z,55.91
2018-08-27T21:15:18.657Z,55.23
2018-08-27T21:17:54.435Z,55.38
2018-08-27T21:20:31.575Z,55.39
2018-08-27T21:25:49.205Z,55.12
2018-08-27T21:28:25.157Z,55.21
2018-08-27T21:30:57.386Z,55.29
2018-08-27T21:33:34.562Z,55.87
2018-08-27T21:36:12.150Z,55.50
2018-08-27T21:38:51.470Z,55.67
2018-08-27T21:41:23.560Z,55.82
2018-08-27T21:43:59.199Z,55.55
2018-08-27T21:46:34.641Z,56.13
2018-08-27T21:49:10.572Z,56.20
2018-08-27T21:54:27.558Z,57.71
2018-08-27T21:57:00.143Z,56.59
2018-08-27T21:59:33.196Z,56.61
2018-08-27T22:02:17.005Z,56.64
2018-08-27T22:04:51.075Z,57.25
2018-08-27T22:07:24.454Z,57.17
2018-08-27T22:09:58.746Z,58.36
2018-08-27T22:12:31.672Z,58.77
2018-08-27T22:15:04.185Z,58.14
2018-08-27T22:17:46.467Z,58.63
2018-08-27T22:20:23.731Z,57.97
2018-08-27T22:23:01.083Z,58.11
2018-08-27T22:25:35.538Z,57.92
2018-08-27T22:28:09.746Z,57.82
2018-08-27T22:30:49.234Z,58.84
2018-08-27T22:36:07.809Z,58.66
2018-08-27T22:38:40.343Z,58.69
2018-08-27T22:41:20.511Z,59.40
2018-08-27T22:46:34.161Z,59.06
2018-08-27T22:49:11.015Z,58.61
2018-08-27T22:51:47.212Z,58.83
2018-08-27T22:54:21.432Z,58.91
2018-08-27T22:56:59.732Z,59.63
2018-08-27T22:59:40.188Z,58.27
2018-08-27T23:02:14.095Z,58.66
2018-08-27T23:07:35.942Z,58.55
2018-08-27T23:10:12.176Z,58.92
2018-08-27T23:12:51.371Z,58.83
2018-08-27T23:15:28.079Z,58.89
2018-08-27T23:20:46.522Z,59.11
2018-08-27T23:23:24.223Z,59.31
2018-08-27T23:26:01.700Z,58.49
2018-08-27T23:28:42.237Z,59.39
2018-08-27T23:31:20.565Z,59.81
2018-08-27T23:34:00.008Z,60.28
2018-08-27T23:36:36.300Z,59.92
2018-08-27T23:39:16.287Z,59.49
2018-08-27T23:41:52.502Z,60.50
2018-08-27T23:44:33.839Z,61.00
2018-08-27T23:47:09.984Z,61.12
2018-08-27T23:49:46.622Z,59.60
2018-08-27T23:55:04.933Z,59.82
2018-08-27T23:57:39.041Z,59.26
